This is the latest recevied weather packets stored in our database for station/object DC1MAK-13. If no packets are shown the sender has not sent any weather packets the latest 10 day(s).
| Time | Temp. | Humidity | Pressure | Rain* | Wind** | Luminosity | Snow |
|---|---|---|---|---|---|---|---|
| 1777955079 | 7.78° C | 98% | 980.2 hPa | - | - | - | - |
| 1777954770 | 8.33° C | 97% | 980.2 hPa | - | - | - | - |
| 1777954466 | 8.33° C | 96% | 980.3 hPa | - | - | - | - |
| 1777954162 | 8.33° C | 97% | 980.2 hPa | - | - | - | - |
| 1777953559 | 8.33° C | 97% | 980.2 hPa | - | - | - | - |
| 1777942019 | 11.11° C | 87% | 981.7 hPa | - | - | - | - |
| 1777939286 | 12.22° C | 83% | 981.8 hPa | - | - | - | - |
| 1777937768 | 12.78° C | 81% | 981.8 hPa | - | - | - | - |
| 1777934732 | 12.78° C | 79% | 982.1 hPa | - | - | - | - |
| 1777932303 | 12.78° C | 77% | 982.1 hPa | - | - | - | - |
| 1777929879 | 13.89° C | 73% | 982.4 hPa | - | - | - | - |
| 1777929267 | 14.44° C | 72% | 982.4 hPa | - | - | - | - |
| 1777928963 | 14.44° C | 72% | 982.4 hPa | - | - | - | - |
| 1777926539 | 15° C | 68% | 982.7 hPa | - | - | - | - |
| 1777925623 | 15.56° C | 65% | 982.8 hPa | - | - | - | - |
| 1777925019 | 15.56° C | 64% | 983 hPa | - | - | - | - |
| 1777924713 | 15.56° C | 63% | 983 hPa | - | - | - | - |
| 1777924409 | 15.56° C | 62% | 982.9 hPa | - | - | - | - |
| 1777923499 | 16.11° C | 60% | 982.9 hPa | - | - | - | - |
| 1777923199 | 16.11° C | 60% | 982.8 hPa | - | - | - | - |
| 1777922891 | 16.11° C | 59% | 982.7 hPa | - | - | - | - |
| 1777922587 | 16.67° C | 59% | 982.8 hPa | - | - | - | - |
| 1777922284 | 16.67° C | 58% | 982.8 hPa | - | - | - | - |
| 1777921679 | 16.67° C | 58% | 982.7 hPa | - | - | - | - |
| 1777921373 | 17.22° C | 57% | 982.6 hPa | - | - | - | - |
* Rain since midnight (hover to see other rain measurements)
** Current wind speed in m/s (hover to see current wind gust speed)